createdAt,value
2023-02-04T00:01:24.248Z,100.00
2023-02-04T00:03:55.606Z,100.00
2023-02-04T00:06:27.116Z,100.00
2023-02-04T00:08:58.452Z,100.00
2023-02-04T00:11:29.879Z,100.00
2023-02-04T00:14:01.201Z,100.00
2023-02-04T00:16:32.572Z,100.00
2023-02-04T00:19:03.894Z,99.92
2023-02-04T00:21:35.163Z,100.00
2023-02-04T00:24:06.430Z,100.00
2023-02-04T00:26:37.835Z,100.00
2023-02-04T00:29:09.085Z,100.00
2023-02-04T00:31:40.438Z,100.00
2023-02-04T00:34:11.760Z,100.00
2023-02-04T00:36:43.052Z,99.78
2023-02-04T00:39:14.334Z,99.87
2023-02-04T00:41:45.610Z,99.61
2023-02-04T00:44:16.932Z,99.73
2023-02-04T00:46:48.721Z,100.00
2023-02-04T00:49:20.015Z,99.20
2023-02-04T00:51:51.435Z,99.76
2023-02-04T00:54:22.704Z,99.87
2023-02-04T00:56:54.011Z,100.00
2023-02-04T00:59:25.511Z,100.00
2023-02-04T01:01:56.817Z,100.00
2023-02-04T01:04:29.462Z,100.00
2023-02-04T01:07:00.787Z,100.00
2023-02-04T01:09:32.114Z,100.00
2023-02-04T01:12:03.533Z,100.00
2023-02-04T01:14:34.918Z,100.00
2023-02-04T01:17:06.701Z,100.00
2023-02-04T01:19:37.976Z,100.00
2023-02-04T01:22:09.293Z,100.00
2023-02-04T01:24:40.564Z,100.00
2023-02-04T01:27:11.844Z,100.00
2023-02-04T01:29:43.155Z,99.76
2023-02-04T01:32:14.419Z,99.47
2023-02-04T01:34:45.733Z,99.31
2023-02-04T01:37:17.769Z,99.73
2023-02-04T01:39:49.030Z,100.00
2023-02-04T01:42:20.374Z,100.00
2023-02-04T01:44:52.168Z,100.00
2023-02-04T01:47:25.527Z,100.00
2023-02-04T01:49:56.977Z,100.00
2023-02-04T01:52:32.405Z,99.75
2023-02-04T01:55:06.161Z,100.00
2023-02-04T01:57:37.549Z,99.88
2023-02-04T02:00:24.601Z,100.00
2023-02-04T02:02:56.719Z,100.00
2023-02-04T02:05:43.978Z,100.00
2023-02-04T02:08:16.275Z,100.00
2023-02-04T02:10:49.165Z,100.00
2023-02-04T02:13:20.704Z,100.00
2023-02-04T02:15:52.049Z,100.00
2023-02-04T02:18:25.136Z,100.00
2023-02-04T02:21:00.407Z,100.00
2023-02-04T02:23:51.428Z,100.00
2023-02-04T02:26:24.102Z,100.00
2023-02-04T02:28:55.631Z,100.00
2023-02-04T02:31:27.479Z,100.00
2023-02-04T02:33:58.817Z,100.00
2023-02-04T02:36:30.182Z,100.00
2023-02-04T02:39:01.519Z,100.00
2023-02-04T02:41:33.749Z,100.00
2023-02-04T02:44:05.362Z,100.00
2023-02-04T02:46:36.906Z,100.00
2023-02-04T02:49:15.973Z,100.00
2023-02-04T02:51:48.173Z,100.00
2023-02-04T02:54:33.104Z,100.00
2023-02-04T02:57:13.747Z,100.00
2023-02-04T02:59:45.785Z,100.00
2023-02-04T03:02:22.439Z,100.00
2023-02-04T03:04:58.453Z,100.00
2023-02-04T03:07:29.740Z,100.00
2023-02-04T03:10:01.117Z,100.00
2023-02-04T03:12:32.708Z,100.00
2023-02-04T03:15:05.383Z,100.00
2023-02-04T03:17:37.447Z,100.00
2023-02-04T03:20:09.808Z,100.00
2023-02-04T03:22:41.198Z,100.00
2023-02-04T03:25:12.519Z,100.00
2023-02-04T03:27:44.190Z,100.00
2023-02-04T03:30:15.684Z,100.00
2023-02-04T03:32:47.029Z,100.00
2023-02-04T03:35:18.660Z,100.00
2023-02-04T03:37:50.067Z,100.00
2023-02-04T03:40:21.377Z,100.00
2023-02-04T03:42:52.689Z,100.00
2023-02-04T03:45:24.016Z,100.00
2023-02-04T03:47:55.705Z,100.00
2023-02-04T03:50:27.000Z,100.00
2023-02-04T03:52:58.262Z,100.00
2023-02-04T03:55:29.572Z,100.00
2023-02-04T03:58:00.860Z,100.00
2023-02-04T04:00:32.804Z,100.00
2023-02-04T04:03:04.282Z,100.00
2023-02-04T04:05:35.594Z,100.00
2023-02-04T04:08:07.288Z,100.00
2023-02-04T04:10:39.418Z,100.00
2023-02-04T04:13:11.686Z,100.00
2023-02-04T04:15:43.014Z,100.00
2023-02-04T04:18:14.328Z,100.00
2023-02-04T04:20:45.623Z,100.00
2023-02-04T04:23:16.886Z,100.00
2023-02-04T04:25:48.141Z,100.00
2023-02-04T04:28:19.499Z,100.00
2023-02-04T04:30:50.979Z,100.00
2023-02-04T04:33:22.340Z,100.00
2023-02-04T04:35:53.594Z,100.00
2023-02-04T04:38:24.886Z,100.00
2023-02-04T04:40:56.207Z,100.00
2023-02-04T04:43:27.545Z,100.00
2023-02-04T04:45:58.816Z,100.00
2023-02-04T04:48:30.073Z,100.00
2023-02-04T04:51:01.358Z,100.00
2023-02-04T04:53:32.614Z,100.00
2023-02-04T04:56:03.964Z,100.00
2023-02-04T04:58:35.310Z,100.00
2023-02-04T05:01:06.733Z,100.00
2023-02-04T05:03:38.115Z,100.00
2023-02-04T05:06:10.933Z,100.00
2023-02-04T05:08:42.204Z,100.00
2023-02-04T05:11:13.459Z,100.00
2023-02-04T05:13:44.705Z,100.00
2023-02-04T05:16:17.241Z,100.00
2023-02-04T05:18:48.584Z,100.00
2023-02-04T05:21:19.856Z,100.00
2023-02-04T05:23:51.122Z,100.00
2023-02-04T05:26:30.135Z,100.00
2023-02-04T05:29:02.431Z,100.00
2023-02-04T05:31:34.416Z,100.00
2023-02-04T05:34:05.728Z,100.00
2023-02-04T05:36:36.983Z,100.00
2023-02-04T05:39:08.297Z,100.00
2023-02-04T05:41:39.750Z,100.00
2023-02-04T05:44:11.095Z,100.00
2023-02-04T05:46:42.405Z,100.00
2023-02-04T05:49:13.750Z,100.00
2023-02-04T05:51:45.025Z,100.00
2023-02-04T05:54:19.361Z,100.00
2023-02-04T05:56:51.656Z,100.00
2023-02-04T05:59:23.006Z,100.00
2023-02-04T06:01:54.631Z,100.00
2023-02-04T06:04:26.032Z,100.00
2023-02-04T06:06:57.371Z,100.00
2023-02-04T06:09:28.643Z,99.74
2023-02-04T06:11:59.967Z,100.00
2023-02-04T06:14:31.218Z,99.97
2023-02-04T06:17:02.482Z,100.00
2023-02-04T06:19:33.776Z,99.99
2023-02-04T06:22:05.104Z,99.73
2023-02-04T06:24:36.811Z,99.25
2023-02-04T06:27:08.272Z,99.72
2023-02-04T06:29:39.607Z,99.09
2023-02-04T06:32:10.873Z,99.03
2023-02-04T06:34:42.160Z,99.06
2023-02-04T06:37:13.766Z,98.88
2023-02-04T06:39:45.076Z,98.73
2023-02-04T06:42:16.387Z,98.56
2023-02-04T06:44:47.652Z,99.04
2023-02-04T06:47:19.385Z,98.45
2023-02-04T06:49:50.655Z,99.05
2023-02-04T06:52:22.159Z,99.02
2023-02-04T06:54:53.423Z,99.29
2023-02-04T06:57:24.813Z,99.30
2023-02-04T06:59:56.114Z,99.50
2023-02-04T07:02:27.458Z,99.37
2023-02-04T07:05:00.689Z,99.44
2023-02-04T07:07:31.952Z,99.49
2023-02-04T07:10:03.955Z,99.29
2023-02-04T07:12:35.213Z,99.23
2023-02-04T07:15:06.848Z,99.42
2023-02-04T07:17:38.127Z,99.48
2023-02-04T07:20:10.967Z,99.26
2023-02-04T07:22:42.458Z,99.13
2023-02-04T07:25:15.935Z,99.07
2023-02-04T07:27:47.271Z,99.37
2023-02-04T07:30:18.627Z,99.28
2023-02-04T07:32:49.915Z,99.16
2023-02-04T07:35:21.234Z,99.69
2023-02-04T07:37:52.519Z,99.36
2023-02-04T07:40:23.841Z,99.73
2023-02-04T07:42:55.174Z,99.80
2023-02-04T07:45:26.491Z,99.29
2023-02-04T07:47:57.775Z,99.18
2023-02-04T07:50:29.200Z,99.20
2023-02-04T07:53:00.531Z,99.29
2023-02-04T07:55:32.178Z,99.65
2023-02-04T07:58:03.718Z,99.65
2023-02-04T08:00:34.971Z,99.59
2023-02-04T08:03:06.265Z,99.83
2023-02-04T08:05:37.541Z,99.78
2023-02-04T08:08:08.885Z,100.00
2023-02-04T08:10:40.221Z,99.71
2023-02-04T08:13:11.561Z,100.00
2023-02-04T08:15:42.928Z,100.00
2023-02-04T08:18:14.243Z,100.00
2023-02-04T08:20:45.525Z,100.00
2023-02-04T08:23:16.798Z,100.00
2023-02-04T08:25:48.059Z,100.00
2023-02-04T08:28:19.612Z,100.00
2023-02-04T08:30:51.139Z,100.00
2023-02-04T08:33:22.553Z,100.00
2023-02-04T08:35:53.925Z,100.00
2023-02-04T08:38:25.310Z,100.00
2023-02-04T08:40:56.631Z,100.00
2023-02-04T08:43:28.075Z,100.00
2023-02-04T08:45:59.351Z,100.00
2023-02-04T08:48:30.633Z,100.00
2023-02-04T08:51:01.978Z,100.00
2023-02-04T08:53:33.289Z,100.00
2023-02-04T08:56:04.909Z,100.00
2023-02-04T08:58:36.369Z,100.00
2023-02-04T09:01:07.758Z,100.00
2023-02-04T09:03:39.504Z,100.00
2023-02-04T09:06:11.378Z,100.00
2023-02-04T09:08:42.694Z,100.00
2023-02-04T09:11:14.794Z,100.00
2023-02-04T09:13:46.190Z,100.00
2023-02-04T09:16:18.473Z,100.00
2023-02-04T09:18:49.801Z,100.00
2023-02-04T09:21:21.258Z,100.00
2023-02-04T09:23:52.570Z,100.00
2023-02-04T09:26:24.100Z,100.00
2023-02-04T09:28:55.422Z,100.00
2023-02-04T09:31:26.799Z,100.00
2023-02-04T09:33:58.258Z,100.00
2023-02-04T09:36:30.551Z,100.00
2023-02-04T09:39:01.815Z,100.00
2023-02-04T09:41:34.295Z,100.00
2023-02-04T09:44:12.624Z,100.00
2023-02-04T09:46:49.171Z,100.00
2023-02-04T09:49:20.529Z,100.00
2023-02-04T09:51:52.619Z,100.00
2023-02-04T09:54:24.122Z,100.00
2023-02-04T09:56:55.456Z,100.00
2023-02-04T09:59:28.830Z,100.00
2023-02-04T10:02:02.759Z,100.00
2023-02-04T10:04:34.097Z,100.00
2023-02-04T10:07:12.088Z,100.00
2023-02-04T10:09:43.634Z,100.00
2023-02-04T10:12:15.100Z,100.00
2023-02-04T10:14:46.644Z,100.00
2023-02-04T10:17:21.836Z,100.00
2023-02-04T10:19:53.115Z,99.92
2023-02-04T10:22:24.462Z,100.00
2023-02-04T10:24:55.708Z,99.94
2023-02-04T10:27:27.020Z,100.00
2023-02-04T10:29:59.518Z,99.55
2023-02-04T10:32:33.336Z,99.69
2023-02-04T10:35:04.948Z,99.37
2023-02-04T10:37:36.225Z,99.55
2023-02-04T10:40:32.847Z,99.17
2023-02-04T10:43:10.205Z,99.28
2023-02-04T10:45:47.079Z,98.87
2023-02-04T10:48:19.375Z,98.95
2023-02-04T10:50:50.726Z,98.60
2023-02-04T10:53:41.926Z,98.54
2023-02-04T10:56:17.165Z,98.97
2023-02-04T10:58:49.363Z,99.13
2023-02-04T11:01:20.665Z,99.10
2023-02-04T11:03:53.785Z,98.74
2023-02-04T11:06:25.137Z,98.58
2023-02-04T11:08:59.110Z,98.62
2023-02-04T11:11:30.485Z,98.45
2023-02-04T11:14:03.201Z,98.82
2023-02-04T11:16:46.091Z,98.41
2023-02-04T11:19:31.743Z,98.56
2023-02-04T11:22:22.573Z,98.62
2023-02-04T11:24:55.814Z,98.92
2023-02-04T11:27:39.147Z,98.56
2023-02-04T11:30:21.791Z,98.95
2023-02-04T11:33:23.770Z,98.69
2023-02-04T11:36:04.410Z,98.86
2023-02-04T11:38:35.892Z,98.65
2023-02-04T11:41:17.904Z,98.64
2023-02-04T11:43:53.861Z,98.76
2023-02-04T11:46:27.979Z,98.47
2023-02-04T11:48:59.356Z,98.84
2023-02-04T11:51:33.339Z,98.63
2023-02-04T11:54:04.722Z,98.51
2023-02-04T11:56:36.082Z,98.38
2023-02-04T11:59:10.973Z,98.33
2023-02-04T12:01:42.302Z,98.15
2023-02-04T12:04:24.971Z,98.13
2023-02-04T12:07:02.181Z,98.21
2023-02-04T12:09:33.615Z,98.13
2023-02-04T12:12:05.044Z,97.94
2023-02-04T12:14:37.947Z,97.65
2023-02-04T12:17:17.315Z,97.04
2023-02-04T12:19:48.575Z,97.27
2023-02-04T12:22:19.835Z,97.10
2023-02-04T12:24:52.312Z,96.72
2023-02-04T12:27:23.666Z,96.91
2023-02-04T12:29:55.015Z,96.63
2023-02-04T12:32:26.255Z,95.89
2023-02-04T12:34:57.541Z,95.86
2023-02-04T12:37:28.889Z,95.21
2023-02-04T12:40:00.139Z,95.28
2023-02-04T12:42:31.387Z,94.94
2023-02-04T12:45:02.799Z,94.30
2023-02-04T12:47:34.078Z,93.92
2023-02-04T12:50:07.111Z,94.32
2023-02-04T12:52:39.359Z,93.83
2023-02-04T12:55:10.622Z,93.85
2023-02-04T12:57:41.872Z,93.58
2023-02-04T13:00:14.589Z,93.66
2023-02-04T13:02:46.128Z,93.22
2023-02-04T13:05:18.405Z,93.72
2023-02-04T13:07:49.739Z,93.14
2023-02-04T13:10:21.816Z,92.83
2023-02-04T13:12:53.321Z,92.90
2023-02-04T13:15:24.574Z,93.01
2023-02-04T13:17:55.844Z,93.11
2023-02-04T13:20:27.160Z,92.65
2023-02-04T13:22:58.445Z,92.59
2023-02-04T13:25:29.788Z,92.31
2023-02-04T13:28:01.142Z,92.22
2023-02-04T13:30:32.606Z,91.99
2023-02-04T13:33:04.003Z,92.11
2023-02-04T13:35:35.695Z,91.80
2023-02-04T13:38:07.078Z,91.99
2023-02-04T13:40:39.221Z,91.84
2023-02-04T13:43:10.664Z,91.75
2023-02-04T13:45:47.447Z,91.73
2023-02-04T13:48:18.852Z,91.47
2023-02-04T13:50:50.745Z,91.87
2023-02-04T13:53:22.058Z,91.49
2023-02-04T13:55:53.351Z,91.42
2023-02-04T13:58:25.115Z,91.40
2023-02-04T14:00:57.387Z,91.46
2023-02-04T14:03:29.857Z,91.55
2023-02-04T14:06:01.421Z,91.23
2023-02-04T14:08:33.063Z,91.24
2023-02-04T14:11:05.080Z,91.34
2023-02-04T14:13:36.341Z,91.37
2023-02-04T14:16:09.221Z,91.35
2023-02-04T14:18:40.532Z,91.63
2023-02-04T14:21:11.899Z,91.37
2023-02-04T14:23:43.189Z,91.82
2023-02-04T14:26:14.736Z,91.35
2023-02-04T14:28:46.015Z,91.62
2023-02-04T14:31:17.324Z,91.67
2023-02-04T14:33:50.425Z,91.65
2023-02-04T14:36:22.126Z,91.88
2023-02-04T14:38:53.602Z,91.66
2023-02-04T14:41:26.272Z,91.71
2023-02-04T14:43:57.548Z,92.07
2023-02-04T14:46:28.861Z,92.07
2023-02-04T14:49:00.214Z,91.53
2023-02-04T14:51:31.628Z,91.47
2023-02-04T14:54:02.924Z,92.42
2023-02-04T14:56:34.218Z,91.98
2023-02-04T14:59:05.554Z,91.99
2023-02-04T15:01:36.891Z,92.37
2023-02-04T15:04:08.213Z,91.84
2023-02-04T15:06:39.499Z,92.21
2023-02-04T15:09:10.843Z,92.51
2023-02-04T15:11:42.151Z,92.55
2023-02-04T15:14:13.476Z,92.14
2023-02-04T15:16:47.929Z,92.03
2023-02-04T15:19:21.560Z,92.88
2023-02-04T15:21:53.932Z,93.43
2023-02-04T15:24:27.608Z,92.77
2023-02-04T15:26:58.908Z,92.82
2023-02-04T15:29:30.583Z,92.90
2023-02-04T15:32:02.066Z,92.79
2023-02-04T15:34:34.722Z,92.74
2023-02-04T15:37:06.284Z,92.69
2023-02-04T15:39:38.491Z,92.51
2023-02-04T15:42:10.030Z,92.90
2023-02-04T15:44:41.312Z,92.74
2023-02-04T15:47:12.606Z,93.01
2023-02-04T15:49:43.933Z,93.29
2023-02-04T15:52:24.143Z,93.38
2023-02-04T15:54:56.594Z,93.15
2023-02-04T15:57:27.988Z,92.85
2023-02-04T15:59:59.336Z,93.50
2023-02-04T16:02:30.818Z,92.85
2023-02-04T16:05:02.213Z,93.54
2023-02-04T16:07:33.932Z,93.43
2023-02-04T16:10:05.550Z,93.49
2023-02-04T16:12:36.875Z,93.92
2023-02-04T16:15:08.856Z,93.39
2023-02-04T16:17:40.143Z,93.69
2023-02-04T16:20:11.598Z,93.78
2023-02-04T16:22:43.009Z,93.59
2023-02-04T16:25:14.355Z,93.25
2023-02-04T16:27:45.761Z,93.40
2023-02-04T16:30:17.259Z,93.75
2023-02-04T16:32:48.575Z,93.57
2023-02-04T16:35:19.930Z,93.30
2023-02-04T16:37:51.197Z,93.35
2023-02-04T16:40:22.516Z,93.56
2023-02-04T16:42:53.856Z,93.63
2023-02-04T16:45:25.109Z,94.27
2023-02-04T16:47:56.358Z,92.89
2023-02-04T16:50:27.602Z,93.56
2023-02-04T16:52:58.938Z,93.51
2023-02-04T16:55:30.330Z,93.75
2023-02-04T16:58:01.651Z,93.72
2023-02-04T17:00:32.947Z,93.96
2023-02-04T17:03:05.701Z,93.62
2023-02-04T17:05:37.652Z,93.69
2023-02-04T17:08:09.423Z,94.11
2023-02-04T17:11:00.097Z,93.70
2023-02-04T17:13:31.390Z,93.52
2023-02-04T17:16:02.852Z,94.12
2023-02-04T17:18:34.233Z,94.22
2023-02-04T17:21:05.578Z,93.39
2023-02-04T17:23:36.932Z,93.00
2023-02-04T17:26:08.302Z,94.23
2023-02-04T17:28:40.080Z,94.08
2023-02-04T17:31:11.624Z,94.06
2023-02-04T17:33:43.124Z,94.15
2023-02-04T17:36:15.229Z,93.90
2023-02-04T17:38:46.628Z,93.98
2023-02-04T17:41:17.961Z,93.51
2023-02-04T17:43:50.232Z,94.56
2023-02-04T17:46:21.646Z,93.44
2023-02-04T17:48:52.921Z,93.35
2023-02-04T17:51:24.225Z,94.06
2023-02-04T17:53:55.592Z,93.58
2023-02-04T17:56:27.005Z,93.57
2023-02-04T17:58:58.405Z,94.08
2023-02-04T18:01:29.758Z,93.78
2023-02-04T18:04:02.051Z,93.31
2023-02-04T18:06:33.796Z,94.01
2023-02-04T18:09:14.336Z,94.04
2023-02-04T18:11:45.828Z,93.93
2023-02-04T18:14:24.209Z,93.06
2023-02-04T18:17:00.444Z,93.87
2023-02-04T18:19:36.808Z,94.17
2023-02-04T18:22:13.261Z,94.29
2023-02-04T18:24:48.240Z,94.41
2023-02-04T18:27:24.353Z,94.43
2023-02-04T18:29:56.498Z,94.43
2023-02-04T18:32:38.896Z,93.93
2023-02-04T18:35:22.374Z,93.96
2023-02-04T18:37:53.901Z,95.16
2023-02-04T18:40:28.041Z,94.50
2023-02-04T18:43:27.951Z,94.64
2023-02-04T18:46:05.829Z,94.11
2023-02-04T18:48:53.989Z,94.19
2023-02-04T18:51:40.194Z,94.61
2023-02-04T18:54:27.587Z,94.71
2023-02-04T18:57:26.937Z,94.84
2023-02-04T19:00:10.148Z,94.93
2023-02-04T19:02:51.803Z,94.67
2023-02-04T19:05:29.943Z,94.74
2023-02-04T19:08:04.546Z,94.47
2023-02-04T19:10:38.111Z,95.19
2023-02-04T19:13:39.268Z,94.72
2023-02-04T19:16:23.956Z,94.14
2023-02-04T19:18:56.523Z,94.87
2023-02-04T19:21:33.931Z,95.18
2023-02-04T19:24:17.684Z,94.49
2023-02-04T19:27:00.296Z,94.82
2023-02-04T19:29:42.043Z,94.75
2023-02-04T19:32:23.962Z,94.93
2023-02-04T19:34:59.171Z,94.86
2023-02-04T19:37:41.130Z,94.38
2023-02-04T19:40:38.863Z,95.04
2023-02-04T19:43:19.024Z,94.35
2023-02-04T19:45:51.186Z,95.28
2023-02-04T19:48:38.318Z,94.95
2023-02-04T19:51:20.976Z,95.30
2023-02-04T19:53:59.028Z,94.70
2023-02-04T19:56:36.578Z,94.96
2023-02-04T19:59:28.942Z,94.98
2023-02-04T20:02:06.034Z,94.24
2023-02-04T20:04:48.668Z,95.21
2023-02-04T20:07:23.092Z,94.30
2023-02-04T20:10:06.117Z,94.31
2023-02-04T20:12:37.983Z,95.34
2023-02-04T20:15:20.903Z,94.15
2023-02-04T20:17:52.873Z,94.06
2023-02-04T20:20:29.868Z,94.21
2023-02-04T20:23:14.491Z,94.61
2023-02-04T20:25:49.261Z,94.24
2023-02-04T20:28:42.739Z,94.13
2023-02-04T20:31:29.007Z,94.76
2023-02-04T20:34:00.694Z,94.34
2023-02-04T20:36:38.375Z,94.47
2023-02-04T20:39:09.827Z,94.24
2023-02-04T20:41:41.424Z,94.43
2023-02-04T20:44:17.177Z,94.29
2023-02-04T20:46:48.482Z,94.20
2023-02-04T20:49:24.574Z,94.72
2023-02-04T20:52:00.019Z,94.39
2023-02-04T20:54:32.110Z,93.92
2023-02-04T20:57:20.379Z,94.00
2023-02-04T20:59:53.622Z,93.71
2023-02-04T21:02:24.896Z,93.63
2023-02-04T21:04:56.659Z,94.26
2023-02-04T21:07:27.931Z,94.29
2023-02-04T21:09:59.630Z,94.15
2023-02-04T21:12:31.933Z,94.51
2023-02-04T21:15:03.568Z,93.80
2023-02-04T21:17:34.882Z,93.73
2023-02-04T21:20:06.853Z,93.89
2023-02-04T21:22:38.219Z,94.53
2023-02-04T21:25:11.570Z,94.17
2023-02-04T21:27:42.990Z,94.21
2023-02-04T21:30:15.966Z,94.51
2023-02-04T21:32:47.245Z,94.59
2023-02-04T21:35:24.157Z,95.11
2023-02-04T21:38:00.187Z,94.22
2023-02-04T21:40:32.890Z,94.33
2023-02-04T21:43:07.472Z,93.87
2023-02-04T21:45:39.673Z,94.60
2023-02-04T21:48:11.159Z,94.11
2023-02-04T21:50:42.577Z,94.66
2023-02-04T21:53:14.082Z,94.84
2023-02-04T21:55:45.447Z,94.77
2023-02-04T21:58:16.727Z,94.71
2023-02-04T22:00:48.257Z,94.94
2023-02-04T22:03:19.631Z,94.58
2023-02-04T22:05:51.177Z,95.23
2023-02-04T22:08:22.655Z,94.39
2023-02-04T22:10:54.018Z,94.49
2023-02-04T22:13:25.351Z,95.04
2023-02-04T22:15:56.651Z,94.15
2023-02-04T22:18:28.335Z,94.96
2023-02-04T22:20:59.839Z,95.05
2023-02-04T22:23:31.099Z,95.06
2023-02-04T22:26:02.521Z,94.76
2023-02-04T22:28:33.783Z,94.83
2023-02-04T22:31:06.314Z,95.58
2023-02-04T22:33:37.648Z,94.79
2023-02-04T22:36:09.064Z,95.08
2023-02-04T22:38:40.408Z,94.46
2023-02-04T22:41:11.846Z,95.65
2023-02-04T22:43:43.236Z,94.70
2023-02-04T22:46:14.532Z,95.47
2023-02-04T22:48:45.810Z,94.95
2023-02-04T22:51:17.081Z,94.91
2023-02-04T22:53:49.063Z,94.62
2023-02-04T22:56:21.451Z,95.45
2023-02-04T22:58:53.022Z,95.57
2023-02-04T23:01:24.426Z,95.04
2023-02-04T23:03:55.716Z,94.96
2023-02-04T23:06:27.583Z,95.56
2023-02-04T23:08:58.877Z,95.43
2023-02-04T23:11:30.168Z,95.07
2023-02-04T23:14:01.556Z,95.44
2023-02-04T23:16:32.984Z,94.73
2023-02-04T23:19:04.918Z,95.31
2023-02-04T23:21:36.363Z,94.57
2023-02-04T23:24:07.851Z,94.95
2023-02-04T23:26:39.288Z,94.75
2023-02-04T23:29:10.554Z,94.45
2023-02-04T23:31:41.851Z,95.34
2023-02-04T23:34:13.166Z,94.88
2023-02-04T23:36:46.498Z,94.24
2023-02-04T23:39:21.229Z,94.79
2023-02-04T23:41:52.934Z,95.24
2023-02-04T23:44:24.282Z,94.31
2023-02-04T23:46:55.665Z,94.58
2023-02-04T23:49:26.947Z,94.25
2023-02-04T23:51:58.356Z,94.94
2023-02-04T23:54:29.765Z,94.87
2023-02-04T23:57:01.387Z,95.29
2023-02-04T23:59:32.775Z,94.77
